sensor_id;sensor_type;location;lat;lon;timestamp;temperature;humidity
19224;DHT22;9746;47.180;9.776;2023-08-12T11:48:00;34.80;99.90
19224;DHT22;9746;47.180;9.776;2023-08-12T11:50:28;34.50;99.90
19224;DHT22;9746;47.180;9.776;2023-08-12T11:52:57;34.10;99.90
19224;DHT22;9746;47.180;9.776;2023-08-12T11:55:25;33.60;99.90
19224;DHT22;9746;47.180;9.776;2023-08-12T11:57:52;33.10;99.90
19224;DHT22;9746;47.180;9.776;2023-08-12T12:00:20;32.70;99.90
19224;DHT22;9746;47.180;9.776;2023-08-12T12:02:51;32.20;99.90
19224;DHT22;9746;47.180;9.776;2023-08-12T12:05:22;32.00;99.90
19224;DHT22;9746;47.180;9.776;2023-08-12T12:07:51;31.90;99.90
19224;DHT22;9746;47.180;9.776;2023-08-12T12:10:25;31.90;99.90
19224;DHT22;9746;47.180;9.776;2023-08-12T12:12:54;32.20;99.90
19224;DHT22;9746;47.180;9.776;2023-08-12T12:15:22;33.20;99.90
19224;DHT22;9746;47.180;9.776;2023-08-12T12:17:50;34.10;99.90
19224;DHT22;9746;47.180;9.776;2023-08-12T12:20:19;34.50;99.90
19224;DHT22;9746;47.180;9.776;2023-08-12T12:22:49;34.30;99.90
19224;DHT22;9746;47.180;9.776;2023-08-12T12:25:17;33.80;99.90
19224;DHT22;9746;47.180;9.776;2023-08-12T12:27:46;33.60;99.90
19224;DHT22;9746;47.180;9.776;2023-08-12T12:30:15;33.40;99.90
19224;DHT22;9746;47.180;9.776;2023-08-12T12:32:50;33.10;99.90
19224;DHT22;9746;47.180;9.776;2023-08-12T12:35:19;33.30;99.90
19224;DHT22;9746;47.180;9.776;2023-08-12T12:37:47;34.30;99.90
19224;DHT22;9746;47.180;9.776;2023-08-12T12:40:15;35.60;99.90
19224;DHT22;9746;47.180;9.776;2023-08-12T12:42:43;37.10;99.90
19224;DHT22;9746;47.180;9.776;2023-08-12T12:45:10;38.50;99.90
19224;DHT22;9746;47.180;9.776;2023-08-12T12:47:38;39.70;99.90
19224;DHT22;9746;47.180;9.776;2023-08-12T12:50:06;40.90;99.90
19224;DHT22;9746;47.180;9.776;2023-08-12T12:52:35;41.20;99.40
19224;DHT22;9746;47.180;9.776;2023-08-12T12:55:03;41.80;96.70
19224;DHT22;9746;47.180;9.776;2023-08-12T12:57:31;41.70;94.20
19224;DHT22;9746;47.180;9.776;2023-08-12T12:59:59;42.10;94.60
19224;DHT22;9746;47.180;9.776;2023-08-12T13:02:26;42.10;94.30
19224;DHT22;9746;47.180;9.776;2023-08-12T13:04:53;41.70;92.10
19224;DHT22;9746;47.180;9.776;2023-08-12T13:07:21;41.40;92.70
19224;DHT22;9746;47.180;9.776;2023-08-12T13:09:50;41.90;93.90
19224;DHT22;9746;47.180;9.776;2023-08-12T13:12:18;42.70;91.40
19224;DHT22;9746;47.180;9.776;2023-08-12T13:14:48;42.10;91.50
19224;DHT22;9746;47.180;9.776;2023-08-12T13:17:15;41.70;91.40
19224;DHT22;9746;47.180;9.776;2023-08-12T13:19:43;41.20;92.00
19224;DHT22;9746;47.180;9.776;2023-08-12T13:22:10;40.70;92.30
19224;DHT22;9746;47.180;9.776;2023-08-12T13:24:39;40.00;92.10
19224;DHT22;9746;47.180;9.776;2023-08-12T13:27:08;39.50;93.60
19224;DHT22;9746;47.180;9.776;2023-08-12T13:29:36;38.90;93.30
19224;DHT22;9746;47.180;9.776;2023-08-12T13:32:04;38.30;93.30
19224;DHT22;9746;47.180;9.776;2023-08-12T13:34:31;37.80;94.60
19224;DHT22;9746;47.180;9.776;2023-08-12T13:36:59;37.30;95.10
19224;DHT22;9746;47.180;9.776;2023-08-12T13:39:26;37.10;95.20
19224;DHT22;9746;47.180;9.776;2023-08-12T13:41:53;37.20;96.10
19224;DHT22;9746;47.180;9.776;2023-08-12T13:44:26;37.70;96.20
19224;DHT22;9746;47.180;9.776;2023-08-12T13:46:53;38.30;97.10
19224;DHT22;9746;47.180;9.776;2023-08-12T13:49:21;39.00;95.40
19224;DHT22;9746;47.180;9.776;2023-08-12T13:51:48;39.80;94.00
19224;DHT22;9746;47.180;9.776;2023-08-12T13:54:17;40.90;95.90
19224;DHT22;9746;47.180;9.776;2023-08-12T13:56:44;42.30;92.30
19224;DHT22;9746;47.180;9.776;2023-08-12T13:59:12;42.10;89.80
19224;DHT22;9746;47.180;9.776;2023-08-12T14:01:41;42.10;90.10
19224;DHT22;9746;47.180;9.776;2023-08-12T14:04:08;42.80;87.60
19224;DHT22;9746;47.180;9.776;2023-08-12T14:06:35;43.30;86.20
19224;DHT22;9746;47.180;9.776;2023-08-12T14:09:03;43.80;82.00
19224;DHT22;9746;47.180;9.776;2023-08-12T14:11:30;43.30;84.90
19224;DHT22;9746;47.180;9.776;2023-08-12T14:13:59;43.20;83.80
19224;DHT22;9746;47.180;9.776;2023-08-12T14:16:26;43.70;87.10
19224;DHT22;9746;47.180;9.776;2023-08-12T14:18:55;44.10;82.20
19224;DHT22;9746;47.180;9.776;2023-08-12T14:21:23;44.90;82.70
19224;DHT22;9746;47.180;9.776;2023-08-12T14:23:51;44.90;78.50
19224;DHT22;9746;47.180;9.776;2023-08-12T14:26:18;45.10;77.80
19224;DHT22;9746;47.180;9.776;2023-08-12T14:28:45;44.50;79.00
19224;DHT22;9746;47.180;9.776;2023-08-12T14:31:13;44.10;78.70
19224;DHT22;9746;47.180;9.776;2023-08-12T14:33:42;44.40;77.90
19224;DHT22;9746;47.180;9.776;2023-08-12T14:36:11;45.10;79.20
19224;DHT22;9746;47.180;9.776;2023-08-12T14:38:40;45.70;76.50
19224;DHT22;9746;47.180;9.776;2023-08-12T14:41:07;45.70;74.20
19224;DHT22;9746;47.180;9.776;2023-08-12T14:43:34;46.20;74.50
19224;DHT22;9746;47.180;9.776;2023-08-12T14:46:02;46.80;71.20
19224;DHT22;9746;47.180;9.776;2023-08-12T14:48:31;46.90;70.60
19224;DHT22;9746;47.180;9.776;2023-08-12T14:50:58;47.00;70.50
19224;DHT22;9746;47.180;9.776;2023-08-12T14:53:28;46.50;72.00
19224;DHT22;9746;47.180;9.776;2023-08-12T14:55:55;45.90;69.00
19224;DHT22;9746;47.180;9.776;2023-08-12T14:58:23;46.30;69.70
19224;DHT22;9746;47.180;9.776;2023-08-12T15:00:50;46.00;69.70
19224;DHT22;9746;47.180;9.776;2023-08-12T15:03:17;46.50;68.90
19224;DHT22;9746;47.180;9.776;2023-08-12T15:05:45;47.00;66.20
19224;DHT22;9746;47.180;9.776;2023-08-12T15:08:12;47.70;67.10
19224;DHT22;9746;47.180;9.776;2023-08-12T15:10:42;48.20;65.10
19224;DHT22;9746;47.180;9.776;2023-08-12T15:13:09;49.00;64.80
19224;DHT22;9746;47.180;9.776;2023-08-12T15:15:38;49.70;64.50
19224;DHT22;9746;47.180;9.776;2023-08-12T15:18:05;49.70;59.80
19224;DHT22;9746;47.180;9.776;2023-08-12T15:20:32;49.70;64.50
19224;DHT22;9746;47.180;9.776;2023-08-12T15:23:00;50.00;60.70
19224;DHT22;9746;47.180;9.776;2023-08-12T15:25:27;50.40;59.00
19224;DHT22;9746;47.180;9.776;2023-08-12T15:27:56;50.60;59.20
19224;DHT22;9746;47.180;9.776;2023-08-12T15:30:24;50.60;59.50
19224;DHT22;9746;47.180;9.776;2023-08-12T15:32:51;50.80;58.60
19224;DHT22;9746;47.180;9.776;2023-08-12T15:35:19;50.90;57.60
19224;DHT22;9746;47.180;9.776;2023-08-12T15:37:47;51.10;56.60
19224;DHT22;9746;47.180;9.776;2023-08-12T15:40:16;51.30;56.50
19224;DHT22;9746;47.180;9.776;2023-08-12T15:42:45;51.10;56.20
19224;DHT22;9746;47.180;9.776;2023-08-12T15:45:17;51.00;56.90
19224;DHT22;9746;47.180;9.776;2023-08-12T15:47:44;50.80;56.40
19224;DHT22;9746;47.180;9.776;2023-08-12T15:50:12;50.70;56.40
19224;DHT22;9746;47.180;9.776;2023-08-12T15:52:39;50.40;56.20
19224;DHT22;9746;47.180;9.776;2023-08-12T15:55:07;49.50;57.00
19224;DHT22;9746;47.180;9.776;2023-08-12T15:57:34;48.40;56.30
19224;DHT22;9746;47.180;9.776;2023-08-12T16:00:03;47.00;57.20
19224;DHT22;9746;47.180;9.776;2023-08-12T16:02:35;46.60;59.30
19224;DHT22;9746;47.180;9.776;2023-08-12T16:05:03;45.70;59.30
19224;DHT22;9746;47.180;9.776;2023-08-12T16:07:32;44.60;61.40
19224;DHT22;9746;47.180;9.776;2023-08-12T16:09:59;43.60;63.00
19224;DHT22;9746;47.180;9.776;2023-08-12T16:12:26;42.60;64.70
19224;DHT22;9746;47.180;9.776;2023-08-12T16:14:56;41.80;66.50
19224;DHT22;9746;47.180;9.776;2023-08-12T16:17:24;41.50;66.40
19224;DHT22;9746;47.180;9.776;2023-08-12T16:19:54;41.40;68.00
19224;DHT22;9746;47.180;9.776;2023-08-12T16:22:22;41.10;68.80
19224;DHT22;9746;47.180;9.776;2023-08-12T16:24:55;40.50;68.00
19224;DHT22;9746;47.180;9.776;2023-08-12T16:27:22;39.70;70.40
19224;DHT22;9746;47.180;9.776;2023-08-12T16:29:50;38.70;71.80
19224;DHT22;9746;47.180;9.776;2023-08-12T16:32:17;37.70;74.30
19224;DHT22;9746;47.180;9.776;2023-08-12T16:34:45;37.10;77.20
19224;DHT22;9746;47.180;9.776;2023-08-12T16:37:14;36.40;78.00
19224;DHT22;9746;47.180;9.776;2023-08-12T16:39:41;35.70;79.30
19224;DHT22;9746;47.180;9.776;2023-08-12T16:42:09;35.20;81.10
19224;DHT22;9746;47.180;9.776;2023-08-12T16:44:36;34.70;83.70
19224;DHT22;9746;47.180;9.776;2023-08-12T16:47:04;34.20;85.40
19224;DHT22;9746;47.180;9.776;2023-08-12T16:49:32;33.60;87.10
19224;DHT22;9746;47.180;9.776;2023-08-12T16:51:59;33.00;88.90
19224;DHT22;9746;47.180;9.776;2023-08-12T16:54:28;32.60;90.20
19224;DHT22;9746;47.180;9.776;2023-08-12T16:56:56;32.10;91.10
19224;DHT22;9746;47.180;9.776;2023-08-12T16:59:25;31.70;91.80
19224;DHT22;9746;47.180;9.776;2023-08-12T17:01:52;31.40;92.00
19224;DHT22;9746;47.180;9.776;2023-08-12T17:04:20;31.20;92.80
19224;DHT22;9746;47.180;9.776;2023-08-12T17:06:47;31.00;93.60
19224;DHT22;9746;47.180;9.776;2023-08-12T17:09:14;30.70;94.50
19224;DHT22;9746;47.180;9.776;2023-08-12T17:11:43;30.40;95.10
19224;DHT22;9746;47.180;9.776;2023-08-12T17:14:11;30.20;95.80
19224;DHT22;9746;47.180;9.776;2023-08-12T17:16:39;30.00;95.60
19224;DHT22;9746;47.180;9.776;2023-08-12T17:19:06;29.90;95.90
19224;DHT22;9746;47.180;9.776;2023-08-12T17:21:34;29.70;95.20
19224;DHT22;9746;47.180;9.776;2023-08-12T17:24:01;29.60;95.80
19224;DHT22;9746;47.180;9.776;2023-08-12T17:26:29;29.40;96.50
19224;DHT22;9746;47.180;9.776;2023-08-12T17:28:57;29.40;97.30
19224;DHT22;9746;47.180;9.776;2023-08-12T17:31:26;29.30;98.70
19224;DHT22;9746;47.180;9.776;2023-08-12T17:33:53;29.20;99.30
19224;DHT22;9746;47.180;9.776;2023-08-12T17:36:22;29.10;99.90
19224;DHT22;9746;47.180;9.776;2023-08-12T17:38:49;28.90;99.90
19224;DHT22;9746;47.180;9.776;2023-08-12T17:41:17;28.80;99.90
19224;DHT22;9746;47.180;9.776;2023-08-12T17:43:44;28.50;99.90
19224;DHT22;9746;47.180;9.776;2023-08-12T17:46:14;28.40;99.90
19224;DHT22;9746;47.180;9.776;2023-08-12T17:48:41;28.20;99.90
19224;DHT22;9746;47.180;9.776;2023-08-12T17:51:09;28.10;99.90
19224;DHT22;9746;47.180;9.776;2023-08-12T17:53:39;27.90;99.90
19224;DHT22;9746;47.180;9.776;2023-08-12T17:56:07;27.80;99.90
19224;DHT22;9746;47.180;9.776;2023-08-12T17:58:35;27.70;99.90
19224;DHT22;9746;47.180;9.776;2023-08-12T18:01:03;27.50;99.90
19224;DHT22;9746;47.180;9.776;2023-08-12T18:03:32;27.40;99.90
19224;DHT22;9746;47.180;9.776;2023-08-12T18:06:00;27.10;99.90
19224;DHT22;9746;47.180;9.776;2023-08-12T18:08:29;26.90;99.90
19224;DHT22;9746;47.180;9.776;2023-08-12T18:10:56;26.60;99.90
19224;DHT22;9746;47.180;9.776;2023-08-12T18:13:24;26.40;99.90
19224;DHT22;9746;47.180;9.776;2023-08-12T18:15:51;26.10;99.90
19224;DHT22;9746;47.180;9.776;2023-08-12T18:18:18;25.80;99.90
19224;DHT22;9746;47.180;9.776;2023-08-12T18:20:47;25.70;99.90
19224;DHT22;9746;47.180;9.776;2023-08-12T18:23:15;25.50;99.90
19224;DHT22;9746;47.180;9.776;2023-08-12T18:25:42;25.10;99.90
19224;DHT22;9746;47.180;9.776;2023-08-12T18:28:10;24.90;99.90
19224;DHT22;9746;47.180;9.776;2023-08-12T18:30:37;24.60;99.90
19224;DHT22;9746;47.180;9.776;2023-08-12T18:33:05;24.50;99.90
19224;DHT22;9746;47.180;9.776;2023-08-12T18:35:32;24.50;99.90
19224;DHT22;9746;47.180;9.776;2023-08-12T18:38:02;24.40;99.90
19224;DHT22;9746;47.180;9.776;2023-08-12T18:40:29;24.30;99.90
19224;DHT22;9746;47.180;9.776;2023-08-12T18:42:58;24.20;99.90
19224;DHT22;9746;47.180;9.776;2023-08-12T18:45:26;24.10;99.90
19224;DHT22;9746;47.180;9.776;2023-08-12T18:47:53;24.10;99.90
19224;DHT22;9746;47.180;9.776;2023-08-12T18:50:20;24.00;99.90
19224;DHT22;9746;47.180;9.776;2023-08-12T18:52:48;23.90;99.90
19224;DHT22;9746;47.180;9.776;2023-08-12T18:55:17;23.80;99.90
19224;DHT22;9746;47.180;9.776;2023-08-12T18:57:46;23.90;99.90
19224;DHT22;9746;47.180;9.776;2023-08-12T19:00:13;23.80;99.90
19224;DHT22;9746;47.180;9.776;2023-08-12T19:02:41;23.80;99.90
19224;DHT22;9746;47.180;9.776;2023-08-12T19:05:09;23.80;99.90
19224;DHT22;9746;47.180;9.776;2023-08-12T19:07:37;23.70;99.90
19224;DHT22;9746;47.180;9.776;2023-08-12T19:10:06;23.60;99.90
19224;DHT22;9746;47.180;9.776;2023-08-12T19:12:36;23.50;99.90
19224;DHT22;9746;47.180;9.776;2023-08-12T19:15:04;23.40;99.90
19224;DHT22;9746;47.180;9.776;2023-08-12T19:17:32;23.40;99.90
19224;DHT22;9746;47.180;9.776;2023-08-12T19:19:59;23.30;99.90
19224;DHT22;9746;47.180;9.776;2023-08-12T19:22:27;23.30;99.90
19224;DHT22;9746;47.180;9.776;2023-08-12T19:24:54;23.30;99.90
19224;DHT22;9746;47.180;9.776;2023-08-12T19:27:22;23.20;99.90
19224;DHT22;9746;47.180;9.776;2023-08-12T19:29:51;23.10;99.90
19224;DHT22;9746;47.180;9.776;2023-08-12T19:32:18;23.10;99.90
19224;DHT22;9746;47.180;9.776;2023-08-12T19:34:46;23.00;99.90
19224;DHT22;9746;47.180;9.776;2023-08-12T19:37:14;23.00;99.90
19224;DHT22;9746;47.180;9.776;2023-08-12T19:39:41;23.00;99.90
19224;DHT22;9746;47.180;9.776;2023-08-12T19:42:09;22.90;99.90
19224;DHT22;9746;47.180;9.776;2023-08-12T19:44:36;22.90;99.90
19224;DHT22;9746;47.180;9.776;2023-08-12T19:47:05;22.90;99.90
19224;DHT22;9746;47.180;9.776;2023-08-12T19:49:33;22.80;99.90
19224;DHT22;9746;47.180;9.776;2023-08-12T19:52:01;22.80;99.90
19224;DHT22;9746;47.180;9.776;2023-08-12T19:54:28;22.70;99.90
19224;DHT22;9746;47.180;9.776;2023-08-12T19:56:55;22.60;99.90
19224;DHT22;9746;47.180;9.776;2023-08-12T19:59:23;22.60;99.90
19224;DHT22;9746;47.180;9.776;2023-08-12T20:01:50;22.60;99.90
19224;DHT22;9746;47.180;9.776;2023-08-12T20:04:19;22.50;99.90
19224;DHT22;9746;47.180;9.776;2023-08-12T20:06:48;22.40;99.90
19224;DHT22;9746;47.180;9.776;2023-08-12T20:09:15;22.40;99.90
19224;DHT22;9746;47.180;9.776;2023-08-12T20:11:43;22.40;99.90
19224;DHT22;9746;47.180;9.776;2023-08-12T20:14:10;22.30;99.90
19224;DHT22;9746;47.180;9.776;2023-08-12T20:16:37;22.30;99.90
19224;DHT22;9746;47.180;9.776;2023-08-12T20:19:05;22.30;99.90
19224;DHT22;9746;47.180;9.776;2023-08-12T20:21:35;22.30;99.90
19224;DHT22;9746;47.180;9.776;2023-08-12T20:24:03;22.30;99.90
19224;DHT22;9746;47.180;9.776;2023-08-12T20:26:32;22.30;99.90
19224;DHT22;9746;47.180;9.776;2023-08-12T20:29:00;22.30;99.90
19224;DHT22;9746;47.180;9.776;2023-08-12T20:31:29;22.30;99.90
19224;DHT22;9746;47.180;9.776;2023-08-12T20:33:57;22.30;99.90
19224;DHT22;9746;47.180;9.776;2023-08-12T20:36:24;22.30;99.90
19224;DHT22;9746;47.180;9.776;2023-08-12T20:38:54;22.30;99.90
